createdAt,value
2024-02-13T00:01:57.528Z,203.49105
2024-02-13T00:06:58.936Z,183.55515
2024-02-13T00:12:00.476Z,169.13375
2024-02-13T00:17:01.948Z,148.69965
2024-02-13T00:22:03.343Z,129.0965
2024-02-13T00:27:04.882Z,112.40655
2024-02-13T00:32:06.378Z,95.3477
2024-02-13T00:37:07.852Z,71.2626
2024-02-13T00:42:09.277Z,56.28785
2024-02-13T00:47:10.737Z,43.7281
2024-02-13T00:52:12.192Z,28.0517
2024-02-13T00:57:13.616Z,26.926
2024-02-13T01:02:15.178Z,20.4341
2024-02-13T01:07:16.874Z,10.95485
2024-02-13T01:12:18.381Z,6.91595
2024-02-13T01:17:19.809Z,1.8962
2024-02-13T01:22:21.277Z,0.9481
2024-02-13T01:27:22.682Z,0.47405
2024-02-13T01:32:24.307Z,0
2024-02-13T01:37:25.743Z,0
2024-02-13T01:42:27.177Z,0
2024-02-13T01:47:28.839Z,0
2024-02-13T01:52:30.416Z,0
2024-02-13T01:57:31.821Z,0
2024-02-13T02:02:33.754Z,0
2024-02-13T02:07:35.166Z,0
2024-02-13T02:12:36.547Z,0
2024-02-13T02:17:38.270Z,0
2024-02-13T02:22:39.753Z,0
2024-02-13T02:27:41.185Z,0
2024-02-13T02:32:42.947Z,0
2024-02-13T02:37:44.602Z,0
2024-02-13T02:42:45.960Z,0
2024-02-13T02:47:47.510Z,0
2024-02-13T02:52:49.157Z,0
2024-02-13T02:57:50.666Z,0
2024-02-13T03:02:52.522Z,0
2024-02-13T03:07:54.232Z,0
2024-02-13T03:12:55.795Z,0
2024-02-13T03:17:57.371Z,0
2024-02-13T03:22:59.160Z,0
2024-02-13T03:28:00.712Z,0
2024-02-13T03:33:02.554Z,0
2024-02-13T03:38:04.278Z,0
2024-02-13T03:43:06.158Z,0
2024-02-13T03:48:07.750Z,0
2024-02-13T03:53:09.305Z,0
2024-02-13T03:58:10.816Z,0
2024-02-13T04:03:12.215Z,0
2024-02-13T04:08:14.095Z,0
2024-02-13T04:13:15.694Z,0
2024-02-13T04:18:17.209Z,0
2024-02-13T04:23:18.660Z,0
2024-02-13T04:28:20.101Z,0
2024-02-13T04:33:21.663Z,0
2024-02-13T04:38:23.204Z,0
2024-02-13T04:43:24.761Z,0
2024-02-13T04:48:26.511Z,0
2024-02-13T04:53:28.077Z,0
2024-02-13T04:58:29.628Z,0
2024-02-13T05:03:31.064Z,0
2024-02-13T05:08:32.584Z,0
2024-02-13T05:13:34.209Z,0
2024-02-13T05:18:35.744Z,0
2024-02-13T05:23:37.209Z,0
2024-02-13T05:28:39.040Z,0
2024-02-13T05:33:40.825Z,0
2024-02-13T05:38:42.532Z,0
2024-02-13T05:43:44.068Z,0
2024-02-13T05:48:45.546Z,0
2024-02-13T05:53:47.344Z,0
2024-02-13T05:58:48.841Z,0
2024-02-13T06:03:50.527Z,0
2024-02-13T06:08:52.326Z,0
2024-02-13T06:13:53.942Z,0
2024-02-13T06:18:55.496Z,0
2024-02-13T06:23:57.175Z,0
2024-02-13T06:28:58.796Z,0
2024-02-13T06:34:00.562Z,0
2024-02-13T06:39:02.268Z,0
2024-02-13T06:44:03.795Z,0
2024-02-13T06:49:05.307Z,0
2024-02-13T06:54:06.967Z,0
2024-02-13T06:59:08.432Z,0
2024-02-13T07:04:09.835Z,0
2024-02-13T07:09:11.574Z,0
2024-02-13T07:14:13.153Z,0
2024-02-13T07:19:14.957Z,0
2024-02-13T07:24:16.522Z,0
2024-02-13T07:29:18.046Z,0
2024-02-13T07:34:19.640Z,0
2024-02-13T07:39:21.353Z,0
2024-02-13T07:44:22.828Z,0
2024-02-13T07:49:24.389Z,0
2024-02-13T07:54:26.056Z,0
2024-02-13T07:59:27.628Z,0
2024-02-13T08:04:29.135Z,0
2024-02-13T08:09:30.638Z,0
2024-02-13T08:14:32.252Z,0
2024-02-13T08:19:33.687Z,0
2024-02-13T08:24:35.258Z,0
2024-02-13T08:29:36.721Z,0
2024-02-13T08:34:38.318Z,0
2024-02-13T08:39:39.823Z,0
2024-02-13T08:44:41.220Z,0
2024-02-13T08:49:42.734Z,0
2024-02-13T08:54:44.437Z,0
2024-02-13T08:59:46.081Z,0
2024-02-13T09:04:47.592Z,0
2024-02-13T09:09:49.255Z,0
2024-02-13T09:14:50.842Z,0
2024-02-13T09:19:52.246Z,0
2024-02-13T09:24:56.162Z,0
2024-02-13T09:29:59.244Z,0
2024-02-13T09:35:00.881Z,0
2024-02-13T09:40:02.395Z,0
2024-02-13T09:45:03.892Z,0
2024-02-13T09:50:05.461Z,0
2024-02-13T09:55:06.916Z,0
2024-02-13T10:00:08.318Z,0
2024-02-13T10:05:10.238Z,0
2024-02-13T10:10:11.815Z,0
2024-02-13T10:15:13.354Z,0
2024-02-13T10:20:14.889Z,0
2024-02-13T10:25:27.270Z,0
2024-02-13T10:30:28.851Z,0
2024-02-13T10:35:30.500Z,0
2024-02-13T10:40:32.131Z,0
2024-02-13T10:45:33.520Z,0
2024-02-13T10:50:35.032Z,0
2024-02-13T10:55:37.178Z,0
2024-02-13T11:00:39.674Z,0
2024-02-13T11:05:41.317Z,0
2024-02-13T11:10:43.500Z,0
2024-02-13T11:15:45.551Z,0
2024-02-13T11:20:47.210Z,0
2024-02-13T11:25:48.714Z,0
2024-02-13T11:30:50.229Z,0
2024-02-13T11:35:51.886Z,0
2024-02-13T11:40:53.390Z,0
2024-02-13T11:45:54.754Z,0
2024-02-13T11:50:56.307Z,0
2024-02-13T11:55:57.839Z,0
2024-02-13T12:00:59.265Z,0
2024-02-13T12:06:00.762Z,0
2024-02-13T12:11:02.314Z,0
2024-02-13T12:16:04.115Z,0
2024-02-13T12:21:05.616Z,0
2024-02-13T12:26:07.051Z,0
2024-02-13T12:31:08.540Z,0
2024-02-13T12:36:10.143Z,0
2024-02-13T12:41:11.661Z,0
2024-02-13T12:46:13.084Z,0
2024-02-13T12:51:14.692Z,0
2024-02-13T12:56:16.117Z,0
2024-02-13T13:01:17.573Z,0
2024-02-13T13:06:19.226Z,0
2024-02-13T13:11:20.869Z,0
2024-02-13T13:16:22.322Z,0
2024-02-13T13:21:23.894Z,0
2024-02-13T13:26:25.614Z,0
2024-02-13T13:31:27.254Z,0
2024-02-13T13:36:28.722Z,0
2024-02-13T13:41:30.170Z,0
2024-02-13T13:46:31.644Z,0
2024-02-13T13:51:33.416Z,0
2024-02-13T13:56:34.903Z,0
2024-02-13T14:01:36.293Z,0
2024-02-13T14:06:37.818Z,0
2024-02-13T14:11:39.344Z,0
2024-02-13T14:16:40.815Z,0
2024-02-13T14:21:42.271Z,0
2024-02-13T14:26:43.702Z,0
2024-02-13T14:31:45.167Z,0
2024-02-13T14:36:49.023Z,0
2024-02-13T14:41:51.473Z,0
2024-02-13T14:46:53.367Z,2.3237
2024-02-13T14:51:55.003Z,0.8296
2024-02-13T14:56:56.536Z,4.83185
2024-02-13T15:01:58.050Z,2.1925
2024-02-13T15:06:59.482Z,7.89335
2024-02-13T15:12:01.416Z,14.01635
2024-02-13T15:17:03.078Z,10.8441
2024-02-13T15:22:04.579Z,17.5209
2024-02-13T15:27:05.968Z,27.79165
2024-02-13T15:32:07.465Z,48.5909
2024-02-13T15:37:08.922Z,60.6201
2024-02-13T15:42:21.029Z,86.2193
2024-02-13T15:47:22.788Z,114.8406
2024-02-13T15:52:24.289Z,117.38885
2024-02-13T15:57:25.780Z,132.45645
2024-02-13T16:02:27.453Z,145.5524
2024-02-13T16:07:28.983Z,201.24705
2024-02-13T16:12:30.617Z,300.21145
2024-02-13T16:17:32.415Z,391.90815
2024-02-13T16:22:33.958Z,470.38145
2024-02-13T16:27:35.490Z,464.47535
2024-02-13T16:32:40.565Z,502.0253
2024-02-13T16:37:44.611Z,578.11975
2024-02-13T16:42:46.400Z,536.9378
2024-02-13T16:47:48.131Z,1066.80765
2024-02-13T16:52:49.796Z,1170.83795
2024-02-13T16:57:51.224Z,2030.7946
2024-02-13T17:02:52.769Z,2792.2795
2024-02-13T17:07:54.184Z,3640.5245
2024-02-13T17:12:55.690Z,1567.2225
2024-02-13T17:17:57.503Z,1063.95565
2024-02-13T17:22:58.968Z,1897.3093
2024-02-13T17:28:00.566Z,869.2232
2024-02-13T17:33:03.159Z,835.10365
2024-02-13T17:38:04.868Z,3329.1645
2024-02-13T17:43:06.462Z,3844.7061
2024-02-13T17:48:08.091Z,2194.222
2024-02-13T17:53:09.529Z,2548.55195
2024-02-13T17:58:10.879Z,3360.3843
2024-02-13T18:03:12.524Z,3102.85495
2024-02-13T18:08:13.981Z,4188.68415
2024-02-13T18:13:15.430Z,4012.5413
2024-02-13T18:18:17.154Z,1819.882
2024-02-13T18:23:18.686Z,3169.8715
2024-02-13T18:28:20.118Z,2724.8468
2024-02-13T18:33:21.792Z,2715.53115
2024-02-13T18:38:23.796Z,1398.9577
2024-02-13T18:43:25.290Z,1147.6635
2024-02-13T18:48:26.987Z,1669.77535
2024-02-13T18:53:28.839Z,678.25205
2024-02-13T18:58:30.629Z,714.97105
2024-02-13T19:03:32.714Z,656.95085
2024-02-13T19:08:34.267Z,623.3105
2024-02-13T19:13:35.689Z,1247.12425
2024-02-13T19:18:37.719Z,1322.6978
2024-02-13T19:23:39.504Z,1352.70245
2024-02-13T19:28:41.102Z,1124.77455
2024-02-13T19:33:42.930Z,1184.5271
2024-02-13T19:38:44.589Z,1261.06275
2024-02-13T19:43:46.178Z,1232.5337
2024-02-13T19:48:47.869Z,1145.54325
2024-02-13T19:53:49.476Z,1109.1037
2024-02-13T19:58:51.012Z,789.17325
2024-02-13T20:03:52.780Z,962.9882
2024-02-13T20:08:54.355Z,954.8798
2024-02-13T20:13:55.923Z,908.70055
2024-02-13T20:18:58.018Z,432.5845
2024-02-13T20:23:59.825Z,403.15035
2024-02-13T20:29:01.366Z,369.71345
2024-02-13T20:34:03.293Z,371.3012
2024-02-13T20:39:05.011Z,451.98975
2024-02-13T20:44:06.441Z,502.04615
2024-02-13T20:49:07.953Z,531.0924
2024-02-13T20:54:09.605Z,554.77245
2024-02-13T20:59:11.105Z,511.98375
2024-02-13T21:04:12.666Z,462.7773
2024-02-13T21:09:14.885Z,432.33145
2024-02-13T21:14:16.441Z,496.153
2024-02-13T21:19:18.004Z,440.3921
2024-02-13T21:24:19.794Z,331.5017
2024-02-13T21:29:21.290Z,304.39125
2024-02-13T21:34:23.118Z,284.56565
2024-02-13T21:39:24.911Z,264.5556
2024-02-13T21:44:26.433Z,263.04385
2024-02-13T21:49:28.092Z,275.9725
2024-02-13T21:54:29.891Z,292.57115
2024-02-13T21:59:31.339Z,306.57035
2024-02-13T22:04:34.728Z,320.5144
2024-02-13T22:09:36.881Z,334.19985
2024-02-13T22:14:38.483Z,594.76495
2024-02-13T22:19:40.007Z,617.7566
2024-02-13T22:24:41.697Z,301.34085
2024-02-13T22:29:43.141Z,290.6066
2024-02-13T22:34:44.919Z,249.82785
2024-02-13T22:39:46.663Z,243.46525
2024-02-13T22:44:48.107Z,218.7128
2024-02-13T22:49:49.756Z,194.9016
2024-02-13T22:54:51.305Z,160.28385
2024-02-13T22:59:52.930Z,127.10555
2024-02-13T23:04:54.568Z,108.51595
2024-02-13T23:09:56.091Z,109.12445
2024-02-13T23:14:58.140Z,105.3993
2024-02-13T23:20:01.592Z,98.37305
2024-02-13T23:25:03.156Z,92.12075
2024-02-13T23:30:04.600Z,89.87305
2024-02-13T23:35:06.167Z,116.5766
2024-02-13T23:40:07.728Z,119.7484
2024-02-13T23:45:09.382Z,123.95275
2024-02-13T23:50:10.885Z,127.8985
2024-02-13T23:55:12.270Z,125.5558
